sensor_id;sensor_type;location;lat;lon;timestamp;temperature;humidity
7331;DHT22;3706;49.198;7.064;2024-03-17T00:02:13;4.30;99.90
7331;DHT22;3706;49.198;7.064;2024-03-17T00:04:40;4.00;99.90
7331;DHT22;3706;49.198;7.064;2024-03-17T00:07:06;4.00;99.90
7331;DHT22;3706;49.198;7.064;2024-03-17T00:09:34;4.10;99.90
7331;DHT22;3706;49.198;7.064;2024-03-17T00:12:00;4.20;99.90
7331;DHT22;3706;49.198;7.064;2024-03-17T00:14:27;4.10;99.90
7331;DHT22;3706;49.198;7.064;2024-03-17T00:16:55;4.20;99.90
7331;DHT22;3706;49.198;7.064;2024-03-17T00:19:23;4.30;99.90
7331;DHT22;3706;49.198;7.064;2024-03-17T00:21:49;4.30;99.90
7331;DHT22;3706;49.198;7.064;2024-03-17T00:24:18;4.20;99.90
7331;DHT22;3706;49.198;7.064;2024-03-17T00:26:44;4.30;99.90
7331;DHT22;3706;49.198;7.064;2024-03-17T00:29:11;4.10;99.90
7331;DHT22;3706;49.198;7.064;2024-03-17T00:31:37;3.90;99.90
7331;DHT22;3706;49.198;7.064;2024-03-17T00:34:06;3.90;99.90
7331;DHT22;3706;49.198;7.064;2024-03-17T00:36:31;3.90;99.90
7331;DHT22;3706;49.198;7.064;2024-03-17T00:38:59;3.80;99.90
7331;DHT22;3706;49.198;7.064;2024-03-17T00:41:26;3.70;99.90
7331;DHT22;3706;49.198;7.064;2024-03-17T00:43:52;3.70;99.90
7331;DHT22;3706;49.198;7.064;2024-03-17T00:46:20;3.70;99.90
7331;DHT22;3706;49.198;7.064;2024-03-17T00:48:48;3.60;99.90
7331;DHT22;3706;49.198;7.064;2024-03-17T00:51:16;3.70;99.90
7331;DHT22;3706;49.198;7.064;2024-03-17T00:53:44;3.70;99.90
7331;DHT22;3706;49.198;7.064;2024-03-17T00:56:10;3.70;99.90
7331;DHT22;3706;49.198;7.064;2024-03-17T00:58:37;3.70;99.90
7331;DHT22;3706;49.198;7.064;2024-03-17T01:01:04;3.60;99.90
7331;DHT22;3706;49.198;7.064;2024-03-17T01:03:31;3.70;99.90
7331;DHT22;3706;49.198;7.064;2024-03-17T01:05:57;3.80;99.90
7331;DHT22;3706;49.198;7.064;2024-03-17T01:08:25;3.70;99.90
7331;DHT22;3706;49.198;7.064;2024-03-17T01:10:51;3.80;99.90
7331;DHT22;3706;49.198;7.064;2024-03-17T01:13:18;3.70;99.90
7331;DHT22;3706;49.198;7.064;2024-03-17T01:15:44;3.60;99.90
7331;DHT22;3706;49.198;7.064;2024-03-17T01:18:11;3.60;99.90
7331;DHT22;3706;49.198;7.064;2024-03-17T01:20:38;3.70;99.90
7331;DHT22;3706;49.198;7.064;2024-03-17T01:23:05;3.60;99.90
7331;DHT22;3706;49.198;7.064;2024-03-17T01:25:33;3.50;99.90
7331;DHT22;3706;49.198;7.064;2024-03-17T01:28:02;3.40;99.90
7331;DHT22;3706;49.198;7.064;2024-03-17T01:30:28;3.30;99.90
7331;DHT22;3706;49.198;7.064;2024-03-17T01:33:01;3.10;99.90
7331;DHT22;3706;49.198;7.064;2024-03-17T01:35:27;3.10;99.90
7331;DHT22;3706;49.198;7.064;2024-03-17T01:37:54;3.10;99.90
7331;DHT22;3706;49.198;7.064;2024-03-17T01:40:20;3.10;99.90
7331;DHT22;3706;49.198;7.064;2024-03-17T01:42:49;3.10;99.90
7331;DHT22;3706;49.198;7.064;2024-03-17T01:45:27;3.00;99.90
7331;DHT22;3706;49.198;7.064;2024-03-17T01:47:55;3.00;99.90
7331;DHT22;3706;49.198;7.064;2024-03-17T01:50:24;3.20;99.90
7331;DHT22;3706;49.198;7.064;2024-03-17T01:52:53;3.10;99.90
7331;DHT22;3706;49.198;7.064;2024-03-17T01:55:22;3.10;99.90
7331;DHT22;3706;49.198;7.064;2024-03-17T01:57:50;3.20;99.90
7331;DHT22;3706;49.198;7.064;2024-03-17T02:00:18;3.30;99.90
7331;DHT22;3706;49.198;7.064;2024-03-17T02:02:44;3.40;99.90
7331;DHT22;3706;49.198;7.064;2024-03-17T02:05:11;3.40;99.90
7331;DHT22;3706;49.198;7.064;2024-03-17T02:07:37;3.30;99.90
7331;DHT22;3706;49.198;7.064;2024-03-17T02:10:05;3.30;99.90
7331;DHT22;3706;49.198;7.064;2024-03-17T02:12:31;3.20;99.90
7331;DHT22;3706;49.198;7.064;2024-03-17T02:15:00;3.20;99.90
7331;DHT22;3706;49.198;7.064;2024-03-17T02:17:26;3.10;99.90
7331;DHT22;3706;49.198;7.064;2024-03-17T02:19:54;3.00;99.90
7331;DHT22;3706;49.198;7.064;2024-03-17T02:22:25;3.00;99.90
7331;DHT22;3706;49.198;7.064;2024-03-17T02:24:51;3.20;99.90
7331;DHT22;3706;49.198;7.064;2024-03-17T02:27:19;3.30;99.90
7331;DHT22;3706;49.198;7.064;2024-03-17T02:29:45;3.50;99.90
7331;DHT22;3706;49.198;7.064;2024-03-17T02:32:12;3.50;99.90
7331;DHT22;3706;49.198;7.064;2024-03-17T02:34:38;3.40;99.90
7331;DHT22;3706;49.198;7.064;2024-03-17T02:37:06;3.30;99.90
7331;DHT22;3706;49.198;7.064;2024-03-17T02:39:34;3.20;99.90
7331;DHT22;3706;49.198;7.064;2024-03-17T02:42:02;3.10;99.90
7331;DHT22;3706;49.198;7.064;2024-03-17T02:44:30;3.10;99.90
7331;DHT22;3706;49.198;7.064;2024-03-17T02:46:58;3.00;99.90
7331;DHT22;3706;49.198;7.064;2024-03-17T02:49:25;2.90;99.90
7331;DHT22;3706;49.198;7.064;2024-03-17T02:51:54;2.90;99.90
7331;DHT22;3706;49.198;7.064;2024-03-17T02:54:21;3.10;99.90
7331;DHT22;3706;49.198;7.064;2024-03-17T02:56:50;3.20;99.90
7331;DHT22;3706;49.198;7.064;2024-03-17T02:59:17;3.10;99.90
7331;DHT22;3706;49.198;7.064;2024-03-17T03:01:44;3.10;99.90
7331;DHT22;3706;49.198;7.064;2024-03-17T03:04:14;3.00;99.90
7331;DHT22;3706;49.198;7.064;2024-03-17T03:06:41;3.00;99.90
7331;DHT22;3706;49.198;7.064;2024-03-17T03:09:08;2.90;99.90
7331;DHT22;3706;49.198;7.064;2024-03-17T03:11:39;2.90;99.90
7331;DHT22;3706;49.198;7.064;2024-03-17T03:14:08;2.80;99.90
7331;DHT22;3706;49.198;7.064;2024-03-17T03:16:35;2.70;99.90
7331;DHT22;3706;49.198;7.064;2024-03-17T03:19:02;2.60;99.90
7331;DHT22;3706;49.198;7.064;2024-03-17T03:21:29;2.60;99.90
7331;DHT22;3706;49.198;7.064;2024-03-17T03:23:56;2.50;99.90
7331;DHT22;3706;49.198;7.064;2024-03-17T03:26:23;2.40;99.90
7331;DHT22;3706;49.198;7.064;2024-03-17T03:28:50;2.30;99.90
7331;DHT22;3706;49.198;7.064;2024-03-17T03:31:21;2.20;99.90
7331;DHT22;3706;49.198;7.064;2024-03-17T03:33:48;2.20;99.90
7331;DHT22;3706;49.198;7.064;2024-03-17T03:36:16;2.10;99.90
7331;DHT22;3706;49.198;7.064;2024-03-17T03:38:43;2.00;99.90
7331;DHT22;3706;49.198;7.064;2024-03-17T03:41:14;2.00;99.90
7331;DHT22;3706;49.198;7.064;2024-03-17T03:43:42;2.00;99.90
7331;DHT22;3706;49.198;7.064;2024-03-17T03:46:10;1.90;99.90
7331;DHT22;3706;49.198;7.064;2024-03-17T03:48:38;2.00;99.90
7331;DHT22;3706;49.198;7.064;2024-03-17T03:51:07;2.00;99.90
7331;DHT22;3706;49.198;7.064;2024-03-17T03:53:35;2.00;99.90
7331;DHT22;3706;49.198;7.064;2024-03-17T03:56:04;2.10;99.90
7331;DHT22;3706;49.198;7.064;2024-03-17T03:58:33;2.30;99.90
7331;DHT22;3706;49.198;7.064;2024-03-17T04:01:03;2.50;99.90
7331;DHT22;3706;49.198;7.064;2024-03-17T04:03:32;2.60;99.90
7331;DHT22;3706;49.198;7.064;2024-03-17T04:06:06;2.70;99.90
7331;DHT22;3706;49.198;7.064;2024-03-17T04:08:34;2.70;99.90
7331;DHT22;3706;49.198;7.064;2024-03-17T04:11:01;2.70;99.90
7331;DHT22;3706;49.198;7.064;2024-03-17T04:13:28;2.80;99.90
7331;DHT22;3706;49.198;7.064;2024-03-17T04:15:56;2.70;99.90
7331;DHT22;3706;49.198;7.064;2024-03-17T04:18:24;2.70;99.90
7331;DHT22;3706;49.198;7.064;2024-03-17T04:20:52;2.60;99.90
7331;DHT22;3706;49.198;7.064;2024-03-17T04:23:22;2.40;99.90
7331;DHT22;3706;49.198;7.064;2024-03-17T04:25:50;2.30;99.90
7331;DHT22;3706;49.198;7.064;2024-03-17T04:28:18;2.00;99.90
7331;DHT22;3706;49.198;7.064;2024-03-17T04:30:45;1.90;99.90
7331;DHT22;3706;49.198;7.064;2024-03-17T04:33:13;1.80;99.90
7331;DHT22;3706;49.198;7.064;2024-03-17T04:35:42;1.70;99.90
7331;DHT22;3706;49.198;7.064;2024-03-17T04:38:10;1.90;99.90
7331;DHT22;3706;49.198;7.064;2024-03-17T04:40:41;2.00;99.90
7331;DHT22;3706;49.198;7.064;2024-03-17T04:43:08;2.00;99.90
7331;DHT22;3706;49.198;7.064;2024-03-17T04:45:35;1.80;99.90
7331;DHT22;3706;49.198;7.064;2024-03-17T04:48:03;1.70;99.90
7331;DHT22;3706;49.198;7.064;2024-03-17T04:50:30;1.60;99.90
7331;DHT22;3706;49.198;7.064;2024-03-17T04:52:58;1.50;99.90
7331;DHT22;3706;49.198;7.064;2024-03-17T04:55:25;1.50;99.90
7331;DHT22;3706;49.198;7.064;2024-03-17T04:57:53;1.50;99.90
7331;DHT22;3706;49.198;7.064;2024-03-17T05:00:21;1.60;99.90
7331;DHT22;3706;49.198;7.064;2024-03-17T05:02:48;1.70;99.90
7331;DHT22;3706;49.198;7.064;2024-03-17T05:05:15;1.60;99.90
7331;DHT22;3706;49.198;7.064;2024-03-17T05:07:42;1.50;99.90
7331;DHT22;3706;49.198;7.064;2024-03-17T05:10:09;1.40;99.90
7331;DHT22;3706;49.198;7.064;2024-03-17T05:12:35;1.30;99.90
7331;DHT22;3706;49.198;7.064;2024-03-17T05:15:05;1.30;99.90
7331;DHT22;3706;49.198;7.064;2024-03-17T05:17:32;1.20;99.90
7331;DHT22;3706;49.198;7.064;2024-03-17T05:20:00;1.50;99.90
7331;DHT22;3706;49.198;7.064;2024-03-17T05:22:28;1.70;99.90
7331;DHT22;3706;49.198;7.064;2024-03-17T05:24:57;1.80;99.90
7331;DHT22;3706;49.198;7.064;2024-03-17T05:27:24;2.00;99.90
7331;DHT22;3706;49.198;7.064;2024-03-17T05:29:51;2.00;99.90
7331;DHT22;3706;49.198;7.064;2024-03-17T05:32:19;1.80;99.90
7331;DHT22;3706;49.198;7.064;2024-03-17T05:34:46;1.80;99.90
7331;DHT22;3706;49.198;7.064;2024-03-17T05:37:13;1.60;99.90
7331;DHT22;3706;49.198;7.064;2024-03-17T05:39:41;1.40;99.90
7331;DHT22;3706;49.198;7.064;2024-03-17T05:42:08;1.30;99.90
7331;DHT22;3706;49.198;7.064;2024-03-17T05:44:35;1.30;99.90
7331;DHT22;3706;49.198;7.064;2024-03-17T05:47:16;1.40;99.90
7331;DHT22;3706;49.198;7.064;2024-03-17T05:49:44;1.40;99.90
7331;DHT22;3706;49.198;7.064;2024-03-17T05:52:11;1.50;99.90
7331;DHT22;3706;49.198;7.064;2024-03-17T05:54:38;1.80;99.90
7331;DHT22;3706;49.198;7.064;2024-03-17T05:57:05;2.00;99.90
7331;DHT22;3706;49.198;7.064;2024-03-17T05:59:34;2.00;99.90
7331;DHT22;3706;49.198;7.064;2024-03-17T06:02:01;1.90;99.90
7331;DHT22;3706;49.198;7.064;2024-03-17T06:04:29;1.90;99.90
7331;DHT22;3706;49.198;7.064;2024-03-17T06:06:57;1.90;99.90
7331;DHT22;3706;49.198;7.064;2024-03-17T06:09:26;1.90;99.90
7331;DHT22;3706;49.198;7.064;2024-03-17T06:11:53;2.00;99.90
7331;DHT22;3706;49.198;7.064;2024-03-17T06:14:20;2.00;99.90
7331;DHT22;3706;49.198;7.064;2024-03-17T06:16:47;2.10;99.90
7331;DHT22;3706;49.198;7.064;2024-03-17T06:19:14;2.10;99.90
7331;DHT22;3706;49.198;7.064;2024-03-17T06:21:41;2.40;99.90
7331;DHT22;3706;49.198;7.064;2024-03-17T06:24:09;2.50;99.90
7331;DHT22;3706;49.198;7.064;2024-03-17T06:26:39;2.80;99.90
7331;DHT22;3706;49.198;7.064;2024-03-17T06:29:07;3.10;99.90
7331;DHT22;3706;49.198;7.064;2024-03-17T06:31:34;3.40;99.90
7331;DHT22;3706;49.198;7.064;2024-03-17T06:34:01;3.60;99.90
7331;DHT22;3706;49.198;7.064;2024-03-17T06:36:29;3.90;99.90
7331;DHT22;3706;49.198;7.064;2024-03-17T06:38:56;4.00;99.90
7331;DHT22;3706;49.198;7.064;2024-03-17T06:41:24;4.20;99.90
7331;DHT22;3706;49.198;7.064;2024-03-17T06:43:51;4.30;99.90
7331;DHT22;3706;49.198;7.064;2024-03-17T06:46:18;4.20;99.90
7331;DHT22;3706;49.198;7.064;2024-03-17T06:48:45;4.10;99.90
7331;DHT22;3706;49.198;7.064;2024-03-17T06:51:12;3.90;99.90
7331;DHT22;3706;49.198;7.064;2024-03-17T06:53:39;3.80;99.90
7331;DHT22;3706;49.198;7.064;2024-03-17T06:56:07;3.80;99.90
7331;DHT22;3706;49.198;7.064;2024-03-17T06:58:35;3.80;99.90
7331;DHT22;3706;49.198;7.064;2024-03-17T07:01:02;3.70;99.90
7331;DHT22;3706;49.198;7.064;2024-03-17T07:03:30;3.70;99.90
7331;DHT22;3706;49.198;7.064;2024-03-17T07:05:58;3.90;99.90
7331;DHT22;3706;49.198;7.064;2024-03-17T07:08:31;3.80;99.90
7331;DHT22;3706;49.198;7.064;2024-03-17T07:10:59;4.00;99.90
7331;DHT22;3706;49.198;7.064;2024-03-17T07:13:29;4.10;99.90
7331;DHT22;3706;49.198;7.064;2024-03-17T07:15:58;4.40;99.90
7331;DHT22;3706;49.198;7.064;2024-03-17T07:18:26;4.80;99.90
7331;DHT22;3706;49.198;7.064;2024-03-17T07:20:56;5.40;99.90
7331;DHT22;3706;49.198;7.064;2024-03-17T07:23:23;6.20;99.90
7331;DHT22;3706;49.198;7.064;2024-03-17T07:25:55;7.10;99.90
7331;DHT22;3706;49.198;7.064;2024-03-17T07:28:22;7.90;99.90
7331;DHT22;3706;49.198;7.064;2024-03-17T07:31:00;8.80;99.90
7331;DHT22;3706;49.198;7.064;2024-03-17T07:33:30;9.60;99.90
7331;DHT22;3706;49.198;7.064;2024-03-17T07:39:05;11.20;99.90
7331;DHT22;3706;49.198;7.064;2024-03-17T07:42:25;11.90;99.90
7331;DHT22;3706;49.198;7.064;2024-03-17T07:45:09;12.60;99.90
7331;DHT22;3706;49.198;7.064;2024-03-17T07:47:38;13.30;99.90
7331;DHT22;3706;49.198;7.064;2024-03-17T07:50:06;13.60;99.90
7331;DHT22;3706;49.198;7.064;2024-03-17T07:52:33;13.90;99.90
7331;DHT22;3706;49.198;7.064;2024-03-17T07:55:00;14.30;99.90
7331;DHT22;3706;49.198;7.064;2024-03-17T07:57:27;14.40;99.90
7331;DHT22;3706;49.198;7.064;2024-03-17T07:59:54;14.50;99.90
7331;DHT22;3706;49.198;7.064;2024-03-17T08:02:21;14.30;99.90
7331;DHT22;3706;49.198;7.064;2024-03-17T08:04:50;14.00;99.90
7331;DHT22;3706;49.198;7.064;2024-03-17T08:07:17;13.80;99.90
7331;DHT22;3706;49.198;7.064;2024-03-17T08:09:48;13.80;99.90
7331;DHT22;3706;49.198;7.064;2024-03-17T08:12:18;14.00;99.90
7331;DHT22;3706;49.198;7.064;2024-03-17T08:14:45;14.40;99.90
7331;DHT22;3706;49.198;7.064;2024-03-17T08:27:47;19.10;99.90
7331;DHT22;3706;49.198;7.064;2024-03-17T08:31:53;19.80;99.90
7331;DHT22;3706;49.198;7.064;2024-03-17T08:34:14;19.40;99.90
7331;DHT22;3706;49.198;7.064;2024-03-17T08:38:51;18.60;99.90
7331;DHT22;3706;49.198;7.064;2024-03-17T08:41:11;17.90;99.90
7331;DHT22;3706;49.198;7.064;2024-03-17T08:43:57;17.10;99.90
7331;DHT22;3706;49.198;7.064;2024-03-17T08:46:24;16.70;99.90
7331;DHT22;3706;49.198;7.064;2024-03-17T08:48:51;16.40;99.90
7331;DHT22;3706;49.198;7.064;2024-03-17T08:51:18;16.40;99.90
7331;DHT22;3706;49.198;7.064;2024-03-17T08:53:45;16.50;99.90
7331;DHT22;3706;49.198;7.064;2024-03-17T08:56:12;16.70;99.90
7331;DHT22;3706;49.198;7.064;2024-03-17T08:58:40;16.90;99.90
7331;DHT22;3706;49.198;7.064;2024-03-17T09:01:08;17.20;99.90
7331;DHT22;3706;49.198;7.064;2024-03-17T09:03:37;17.40;99.90
7331;DHT22;3706;49.198;7.064;2024-03-17T09:06:14;17.80;99.90
7331;DHT22;3706;49.198;7.064;2024-03-17T09:12:48;17.80;99.90
7331;DHT22;3706;49.198;7.064;2024-03-17T09:15:15;17.30;99.90
7331;DHT22;3706;49.198;7.064;2024-03-17T09:17:43;16.90;99.90
7331;DHT22;3706;49.198;7.064;2024-03-17T09:20:12;16.60;99.90
7331;DHT22;3706;49.198;7.064;2024-03-17T09:22:40;16.30;99.90
7331;DHT22;3706;49.198;7.064;2024-03-17T09:25:08;16.30;99.90
7331;DHT22;3706;49.198;7.064;2024-03-17T09:27:35;16.30;99.90
7331;DHT22;3706;49.198;7.064;2024-03-17T09:30:03;16.30;99.90
7331;DHT22;3706;49.198;7.064;2024-03-17T09:32:35;16.40;99.90
7331;DHT22;3706;49.198;7.064;2024-03-17T09:35:04;16.50;99.90
7331;DHT22;3706;49.198;7.064;2024-03-17T09:37:31;16.60;99.90
7331;DHT22;3706;49.198;7.064;2024-03-17T09:39:58;16.80;99.90
7331;DHT22;3706;49.198;7.064;2024-03-17T09:42:26;16.70;99.90
7331;DHT22;3706;49.198;7.064;2024-03-17T09:44:54;16.70;99.90
7331;DHT22;3706;49.198;7.064;2024-03-17T09:47:22;16.60;99.90
7331;DHT22;3706;49.198;7.064;2024-03-17T09:49:50;16.80;99.90
7331;DHT22;3706;49.198;7.064;2024-03-17T09:52:21;17.00;99.90
7331;DHT22;3706;49.198;7.064;2024-03-17T09:54:55;17.30;99.90
7331;DHT22;3706;49.198;7.064;2024-03-17T09:57:25;17.60;99.90
7331;DHT22;3706;49.198;7.064;2024-03-17T09:59:53;17.70;99.90
7331;DHT22;3706;49.198;7.064;2024-03-17T10:02:21;17.80;99.90
7331;DHT22;3706;49.198;7.064;2024-03-17T10:04:48;17.90;99.90
7331;DHT22;3706;49.198;7.064;2024-03-17T10:07:15;18.00;99.90
7331;DHT22;3706;49.198;7.064;2024-03-17T10:13:39;17.80;99.90
7331;DHT22;3706;49.198;7.064;2024-03-17T10:16:23;17.50;99.90
7331;DHT22;3706;49.198;7.064;2024-03-17T10:18:51;17.20;99.90
7331;DHT22;3706;49.198;7.064;2024-03-17T10:21:25;17.00;99.90
7331;DHT22;3706;49.198;7.064;2024-03-17T10:24:05;16.60;99.90
7331;DHT22;3706;49.198;7.064;2024-03-17T10:26:35;16.10;99.90
7331;DHT22;3706;49.198;7.064;2024-03-17T10:29:05;15.80;99.90
7331;DHT22;3706;49.198;7.064;2024-03-17T10:31:38;15.50;99.90
7331;DHT22;3706;49.198;7.064;2024-03-17T10:34:05;15.30;99.90
7331;DHT22;3706;49.198;7.064;2024-03-17T10:36:32;15.20;99.90
7331;DHT22;3706;49.198;7.064;2024-03-17T10:38:59;15.10;99.90
7331;DHT22;3706;49.198;7.064;2024-03-17T10:41:29;15.00;99.90
7331;DHT22;3706;49.198;7.064;2024-03-17T10:43:59;14.80;99.90
7331;DHT22;3706;49.198;7.064;2024-03-17T10:46:27;14.80;99.90
7331;DHT22;3706;49.198;7.064;2024-03-17T10:48:55;14.80;99.90
7331;DHT22;3706;49.198;7.064;2024-03-17T10:51:22;14.90;99.90
7331;DHT22;3706;49.198;7.064;2024-03-17T10:53:50;15.10;99.90
7331;DHT22;3706;49.198;7.064;2024-03-17T10:56:19;15.30;99.90
7331;DHT22;3706;49.198;7.064;2024-03-17T10:58:48;15.60;99.90
7331;DHT22;3706;49.198;7.064;2024-03-17T11:01:19;15.70;99.90
7331;DHT22;3706;49.198;7.064;2024-03-17T11:03:49;15.90;99.90
7331;DHT22;3706;49.198;7.064;2024-03-17T11:06:17;16.10;99.90
7331;DHT22;3706;49.198;7.064;2024-03-17T11:08:45;16.20;99.90
7331;DHT22;3706;49.198;7.064;2024-03-17T11:11:12;16.40;99.90
7331;DHT22;3706;49.198;7.064;2024-03-17T11:13:39;16.60;99.90
7331;DHT22;3706;49.198;7.064;2024-03-17T11:16:25;16.60;99.90
7331;DHT22;3706;49.198;7.064;2024-03-17T11:19:05;16.70;99.90
7331;DHT22;3706;49.198;7.064;2024-03-17T11:21:47;16.80;99.90
7331;DHT22;3706;49.198;7.064;2024-03-17T11:24:22;16.90;99.90
7331;DHT22;3706;49.198;7.064;2024-03-17T11:30:45;17.00;99.90
7331;DHT22;3706;49.198;7.064;2024-03-17T11:33:50;16.90;99.90
7331;DHT22;3706;49.198;7.064;2024-03-17T11:36:33;16.90;99.90
7331;DHT22;3706;49.198;7.064;2024-03-17T11:39:05;16.90;99.90
7331;DHT22;3706;49.198;7.064;2024-03-17T11:41:41;16.80;99.90
7331;DHT22;3706;49.198;7.064;2024-03-17T11:44:15;16.60;99.90
7331;DHT22;3706;49.198;7.064;2024-03-17T11:46:44;16.50;99.90
7331;DHT22;3706;49.198;7.064;2024-03-17T11:49:18;16.40;99.90
7331;DHT22;3706;49.198;7.064;2024-03-17T11:51:49;16.40;99.90
7331;DHT22;3706;49.198;7.064;2024-03-17T11:54:20;16.30;99.90
7331;DHT22;3706;49.198;7.064;2024-03-17T11:56:48;16.20;99.90
7331;DHT22;3706;49.198;7.064;2024-03-17T11:59:16;16.10;99.90
7331;DHT22;3706;49.198;7.064;2024-03-17T12:01:46;15.80;99.90
7331;DHT22;3706;49.198;7.064;2024-03-17T12:04:15;15.50;99.90
7331;DHT22;3706;49.198;7.064;2024-03-17T12:06:46;15.40;99.90
7331;DHT22;3706;49.198;7.064;2024-03-17T12:09:21;15.20;99.90
7331;DHT22;3706;49.198;7.064;2024-03-17T12:11:57;15.00;99.90
7331;DHT22;3706;49.198;7.064;2024-03-17T12:14:24;14.70;99.90
7331;DHT22;3706;49.198;7.064;2024-03-17T12:16:52;14.60;99.90
7331;DHT22;3706;49.198;7.064;2024-03-17T12:19:22;14.50;99.90
7331;DHT22;3706;49.198;7.064;2024-03-17T12:21:53;14.60;99.90
7331;DHT22;3706;49.198;7.064;2024-03-17T12:24:24;14.80;99.90
7331;DHT22;3706;49.198;7.064;2024-03-17T12:26:51;14.80;99.90
7331;DHT22;3706;49.198;7.064;2024-03-17T12:29:25;14.90;99.90
7331;DHT22;3706;49.198;7.064;2024-03-17T12:31:54;15.10;99.90
7331;DHT22;3706;49.198;7.064;2024-03-17T12:34:22;15.20;99.90
7331;DHT22;3706;49.198;7.064;2024-03-17T12:36:50;15.40;99.90
7331;DHT22;3706;49.198;7.064;2024-03-17T12:39:20;15.60;99.90
7331;DHT22;3706;49.198;7.064;2024-03-17T12:42:04;15.80;99.90
7331;DHT22;3706;49.198;7.064;2024-03-17T12:44:32;16.00;99.90
7331;DHT22;3706;49.198;7.064;2024-03-17T12:47:04;16.30;99.90
7331;DHT22;3706;49.198;7.064;2024-03-17T12:49:32;16.40;99.90
7331;DHT22;3706;49.198;7.064;2024-03-17T12:52:01;16.50;99.90
7331;DHT22;3706;49.198;7.064;2024-03-17T12:54:29;16.40;99.90
7331;DHT22;3706;49.198;7.064;2024-03-17T12:57:08;16.30;99.90
7331;DHT22;3706;49.198;7.064;2024-03-17T12:59:53;16.10;99.90
7331;DHT22;3706;49.198;7.064;2024-03-17T13:02:34;16.00;99.90
7331;DHT22;3706;49.198;7.064;2024-03-17T13:05:17;16.10;99.90
7331;DHT22;3706;49.198;7.064;2024-03-17T13:07:47;16.40;99.90
7331;DHT22;3706;49.198;7.064;2024-03-17T13:10:15;16.60;99.90
7331;DHT22;3706;49.198;7.064;2024-03-17T13:12:41;16.70;99.90
7331;DHT22;3706;49.198;7.064;2024-03-17T13:15:13;16.70;99.90
7331;DHT22;3706;49.198;7.064;2024-03-17T13:17:40;16.70;99.90
7331;DHT22;3706;49.198;7.064;2024-03-17T13:20:21;16.70;99.90
7331;DHT22;3706;49.198;7.064;2024-03-17T13:23:08;16.70;99.90
7331;DHT22;3706;49.198;7.064;2024-03-17T13:25:35;16.60;99.90
7331;DHT22;3706;49.198;7.064;2024-03-17T13:28:04;16.70;99.90
7331;DHT22;3706;49.198;7.064;2024-03-17T13:30:36;17.00;99.90
7331;DHT22;3706;49.198;7.064;2024-03-17T13:33:04;17.10;99.90
7331;DHT22;3706;49.198;7.064;2024-03-17T13:35:36;17.10;99.70
7331;DHT22;3706;49.198;7.064;2024-03-17T13:38:05;17.00;99.70
7331;DHT22;3706;49.198;7.064;2024-03-17T13:40:34;17.20;99.80
7331;DHT22;3706;49.198;7.064;2024-03-17T13:43:01;17.50;99.20
7331;DHT22;3706;49.198;7.064;2024-03-17T13:45:30;17.60;98.40
7331;DHT22;3706;49.198;7.064;2024-03-17T13:47:59;17.70;98.60
7331;DHT22;3706;49.198;7.064;2024-03-17T13:50:29;17.70;97.70
7331;DHT22;3706;49.198;7.064;2024-03-17T13:52:57;17.60;97.50
7331;DHT22;3706;49.198;7.064;2024-03-17T13:55:25;17.50;97.60
7331;DHT22;3706;49.198;7.064;2024-03-17T13:57:55;17.30;97.90
7331;DHT22;3706;49.198;7.064;2024-03-17T14:00:23;17.10;97.70
7331;DHT22;3706;49.198;7.064;2024-03-17T14:02:53;16.80;96.90
7331;DHT22;3706;49.198;7.064;2024-03-17T14:05:23;16.50;97.20
7331;DHT22;3706;49.198;7.064;2024-03-17T14:07:52;16.20;97.60
7331;DHT22;3706;49.198;7.064;2024-03-17T14:10:22;15.80;98.40
7331;DHT22;3706;49.198;7.064;2024-03-17T14:12:49;15.40;98.60
7331;DHT22;3706;49.198;7.064;2024-03-17T14:15:18;15.00;99.30
7331;DHT22;3706;49.198;7.064;2024-03-17T14:17:46;14.70;99.60
7331;DHT22;3706;49.198;7.064;2024-03-17T14:20:15;14.50;99.90
7331;DHT22;3706;49.198;7.064;2024-03-17T14:22:44;14.40;99.90
7331;DHT22;3706;49.198;7.064;2024-03-17T14:25:15;14.50;99.90
7331;DHT22;3706;49.198;7.064;2024-03-17T14:27:43;14.60;99.90
7331;DHT22;3706;49.198;7.064;2024-03-17T14:30:14;14.70;99.90
7331;DHT22;3706;49.198;7.064;2024-03-17T14:32:53;14.70;99.90
7331;DHT22;3706;49.198;7.064;2024-03-17T14:35:20;14.60;99.90
7331;DHT22;3706;49.198;7.064;2024-03-17T14:37:48;14.70;99.90
7331;DHT22;3706;49.198;7.064;2024-03-17T14:40:19;14.70;99.90
7331;DHT22;3706;49.198;7.064;2024-03-17T14:42:50;14.70;99.90
7331;DHT22;3706;49.198;7.064;2024-03-17T14:45:27;14.60;99.90
7331;DHT22;3706;49.198;7.064;2024-03-17T14:48:18;14.60;99.90
7331;DHT22;3706;49.198;7.064;2024-03-17T14:51:02;14.60;99.90
7331;DHT22;3706;49.198;7.064;2024-03-17T14:53:32;14.70;99.90
7331;DHT22;3706;49.198;7.064;2024-03-17T14:55:59;14.80;99.90
7331;DHT22;3706;49.198;7.064;2024-03-17T14:58:26;14.80;99.90
7331;DHT22;3706;49.198;7.064;2024-03-17T15:00:53;14.80;99.90
7331;DHT22;3706;49.198;7.064;2024-03-17T15:03:21;14.80;99.90
7331;DHT22;3706;49.198;7.064;2024-03-17T15:05:57;14.80;99.90
7331;DHT22;3706;49.198;7.064;2024-03-17T15:08:44;14.90;99.90
7331;DHT22;3706;49.198;7.064;2024-03-17T15:11:28;15.00;99.90
7331;DHT22;3706;49.198;7.064;2024-03-17T15:13:55;15.00;99.90
7331;DHT22;3706;49.198;7.064;2024-03-17T15:16:24;15.10;99.90
7331;DHT22;3706;49.198;7.064;2024-03-17T15:18:52;15.10;99.90
7331;DHT22;3706;49.198;7.064;2024-03-17T15:21:19;15.10;99.90
7331;DHT22;3706;49.198;7.064;2024-03-17T15:23:46;15.00;99.90
7331;DHT22;3706;49.198;7.064;2024-03-17T15:26:13;14.90;99.90
7331;DHT22;3706;49.198;7.064;2024-03-17T15:28:43;14.90;99.90
7331;DHT22;3706;49.198;7.064;2024-03-17T15:31:11;15.00;99.90
7331;DHT22;3706;49.198;7.064;2024-03-17T15:33:41;15.00;99.90
7331;DHT22;3706;49.198;7.064;2024-03-17T15:36:15;15.00;99.90
7331;DHT22;3706;49.198;7.064;2024-03-17T15:38:42;15.00;99.90
7331;DHT22;3706;49.198;7.064;2024-03-17T15:41:10;14.90;99.90
7331;DHT22;3706;49.198;7.064;2024-03-17T15:43:38;14.80;99.90
7331;DHT22;3706;49.198;7.064;2024-03-17T15:46:07;14.70;99.90
7331;DHT22;3706;49.198;7.064;2024-03-17T15:48:37;14.60;99.90
7331;DHT22;3706;49.198;7.064;2024-03-17T15:51:04;14.50;99.90
7331;DHT22;3706;49.198;7.064;2024-03-17T15:53:32;14.50;99.90
7331;DHT22;3706;49.198;7.064;2024-03-17T15:56:00;14.50;99.90
7331;DHT22;3706;49.198;7.064;2024-03-17T15:58:30;14.40;99.90
7331;DHT22;3706;49.198;7.064;2024-03-17T16:00:58;14.50;99.90
7331;DHT22;3706;49.198;7.064;2024-03-17T16:03:30;14.40;99.90
7331;DHT22;3706;49.198;7.064;2024-03-17T16:06:02;14.40;99.90
7331;DHT22;3706;49.198;7.064;2024-03-17T16:08:37;14.20;99.90
7331;DHT22;3706;49.198;7.064;2024-03-17T16:11:06;14.20;99.80
7331;DHT22;3706;49.198;7.064;2024-03-17T16:13:36;14.10;99.90
7331;DHT22;3706;49.198;7.064;2024-03-17T16:16:10;14.10;99.70
7331;DHT22;3706;49.198;7.064;2024-03-17T16:18:39;14.00;99.90
7331;DHT22;3706;49.198;7.064;2024-03-17T16:21:08;14.00;99.90
7331;DHT22;3706;49.198;7.064;2024-03-17T16:23:40;13.90;99.90
7331;DHT22;3706;49.198;7.064;2024-03-17T16:26:11;13.90;99.90
7331;DHT22;3706;49.198;7.064;2024-03-17T16:28:42;13.80;99.90
7331;DHT22;3706;49.198;7.064;2024-03-17T16:31:09;13.70;99.90
7331;DHT22;3706;49.198;7.064;2024-03-17T16:33:37;13.60;99.90
7331;DHT22;3706;49.198;7.064;2024-03-17T16:36:04;13.60;99.90
7331;DHT22;3706;49.198;7.064;2024-03-17T16:38:32;13.60;99.90
7331;DHT22;3706;49.198;7.064;2024-03-17T16:41:02;13.50;99.90
7331;DHT22;3706;49.198;7.064;2024-03-17T16:43:39;13.40;99.90
7331;DHT22;3706;49.198;7.064;2024-03-17T16:46:20;13.40;99.90
7331;DHT22;3706;49.198;7.064;2024-03-17T16:48:53;13.30;99.90
7331;DHT22;3706;49.198;7.064;2024-03-17T16:51:21;13.20;99.90
7331;DHT22;3706;49.198;7.064;2024-03-17T16:53:48;13.10;99.90